createdAt,value
2022-08-04T00:00:08.824Z,3.92
2022-08-04T00:03:02.893Z,3.40
2022-08-04T00:06:04.451Z,3.47
2022-08-04T00:09:00.387Z,3.40
2022-08-04T00:11:49.007Z,3.72
2022-08-04T00:14:37.942Z,3.90
2022-08-04T00:17:29.053Z,3.35
2022-08-04T00:20:19.017Z,3.72
2022-08-04T00:23:05.945Z,3.75
2022-08-04T00:25:51.398Z,3.40
2022-08-04T00:28:38.481Z,3.83
2022-08-04T00:31:53.766Z,3.45
2022-08-04T00:34:31.826Z,3.55
2022-08-04T00:37:20.891Z,3.70
2022-08-04T00:43:26.298Z,4.30
2022-08-04T00:46:17.026Z,4.38
2022-08-04T00:49:36.681Z,4.07
2022-08-04T00:52:36.393Z,5.25
2022-08-04T00:55:53.543Z,4.78
2022-08-04T00:58:50.770Z,4.80
2022-08-04T01:01:58.599Z,5.10
2022-08-04T01:05:15.322Z,5.75
2022-08-04T01:08:06.229Z,6.07
2022-08-04T01:11:07.744Z,7.07
2022-08-04T01:13:58.385Z,6.80
2022-08-04T01:16:56.533Z,6.82
2022-08-04T01:20:01.286Z,6.57
2022-08-04T01:23:07.980Z,7.22
2022-08-04T01:25:58.932Z,7.40
2022-08-04T01:29:08.555Z,7.32
2022-08-04T01:32:13.884Z,7.63
2022-08-04T01:35:09.967Z,7.95
2022-08-04T01:38:24.948Z,7.18
2022-08-04T01:41:14.312Z,7.68
2022-08-04T01:44:01.658Z,8.07
2022-08-04T01:46:50.181Z,7.72
2022-08-04T01:49:40.325Z,7.55
2022-08-04T01:52:27.976Z,8.38
2022-08-04T01:55:15.470Z,8.52
2022-08-04T01:58:01.443Z,7.78
2022-08-04T02:00:57.218Z,8.15
2022-08-04T02:04:20.160Z,6.88
2022-08-04T02:07:17.069Z,6.63
2022-08-04T02:10:08.150Z,6.78
2022-08-04T02:13:06.195Z,6.07
2022-08-04T02:16:29.087Z,6.57
2022-08-04T02:19:32.594Z,5.78
2022-08-04T02:22:21.898Z,5.82
2022-08-04T02:25:09.038Z,5.40
2022-08-04T02:28:08.956Z,5.47
2022-08-04T02:31:08.433Z,4.68
2022-08-04T02:34:22.154Z,4.53
2022-08-04T02:37:11.944Z,4.53
2022-08-04T02:40:00.223Z,4.07
2022-08-04T02:42:46.150Z,3.83
2022-08-04T02:45:35.922Z,4.03
2022-08-04T02:48:31.129Z,4.25
2022-08-04T02:51:21.532Z,3.38
2022-08-04T02:56:55.649Z,3.75
2022-08-04T03:03:02.541Z,2.63
2022-08-04T03:06:01.565Z,2.78
2022-08-04T03:08:46.952Z,3.00
2022-08-04T03:11:53.254Z,2.50
2022-08-04T03:15:16.660Z,2.75
2022-08-04T03:18:20.252Z,2.95
2022-08-04T03:21:36.144Z,2.50
2022-08-04T03:24:57.701Z,2.70
2022-08-04T03:28:00.824Z,3.03
2022-08-04T03:30:57.769Z,2.42
2022-08-04T03:34:08.718Z,2.13
2022-08-04T03:37:12.055Z,2.17
2022-08-04T03:40:25.841Z,2.40
2022-08-04T03:43:57.314Z,2.40
2022-08-04T03:46:53.153Z,2.20
2022-08-04T03:49:40.716Z,2.03
2022-08-04T03:53:08.811Z,2.50
2022-08-04T03:56:15.607Z,2.03
2022-08-04T03:59:22.072Z,1.90
2022-08-04T04:02:41.163Z,1.70
2022-08-04T04:08:59.416Z,1.92
2022-08-04T04:12:09.649Z,1.95
2022-08-04T04:15:01.875Z,2.05
2022-08-04T04:18:05.108Z,1.80
2022-08-04T04:20:59.172Z,1.67
2022-08-04T04:24:11.580Z,2.00
2022-08-04T04:27:19.585Z,1.67
2022-08-04T04:30:29.213Z,1.95
2022-08-04T04:33:25.696Z,1.65
2022-08-04T04:36:42.641Z,1.48
2022-08-04T04:39:42.993Z,1.73
2022-08-04T04:42:52.396Z,1.80
2022-08-04T04:45:49.484Z,1.65
2022-08-04T04:48:53.207Z,1.85
2022-08-04T04:51:44.505Z,1.52
2022-08-04T04:55:00.092Z,1.67
2022-08-04T04:57:53.870Z,1.92
2022-08-04T05:01:05.717Z,1.45
2022-08-04T05:03:53.999Z,1.50
2022-08-04T05:06:39.014Z,1.67
2022-08-04T05:10:17.719Z,1.58
2022-08-04T05:14:38.593Z,1.48
2022-08-04T05:16:46.676Z,1.80
2022-08-04T05:19:34.913Z,1.90
2022-08-04T05:22:29.517Z,1.70
2022-08-04T05:25:21.271Z,1.58
2022-08-04T05:28:12.261Z,1.70
2022-08-04T05:31:01.558Z,1.92
2022-08-04T05:33:57.025Z,1.70
2022-08-04T05:36:49.598Z,1.83
2022-08-04T05:39:46.405Z,1.63
2022-08-04T05:42:35.792Z,2.30
2022-08-04T05:45:23.520Z,2.15
2022-08-04T05:48:09.864Z,2.00
2022-08-04T05:51:00.737Z,2.60
2022-08-04T05:53:47.304Z,1.92
2022-08-04T05:56:34.140Z,2.10
2022-08-04T05:59:20.577Z,2.45
2022-08-04T06:02:07.988Z,2.00
2022-08-04T06:04:54.168Z,2.22
2022-08-04T06:08:12.624Z,1.58
2022-08-04T06:10:46.488Z,1.45
2022-08-04T06:13:48.284Z,1.67
2022-08-04T06:16:39.437Z,1.63
2022-08-04T06:19:59.457Z,1.85
2022-08-04T06:22:39.709Z,1.77
2022-08-04T06:25:39.393Z,1.98
2022-08-04T06:28:28.016Z,2.20
2022-08-04T06:32:27.285Z,2.33
2022-08-04T06:34:28.366Z,2.38
2022-08-04T06:37:40.733Z,1.77
2022-08-04T06:40:31.656Z,1.85
2022-08-04T06:43:18.930Z,2.17
2022-08-04T06:46:07.007Z,1.90
2022-08-04T06:48:52.964Z,2.00
2022-08-04T06:51:48.963Z,1.80
2022-08-04T06:54:34.912Z,2.33
2022-08-04T06:57:23.808Z,1.60
2022-08-04T07:00:12.507Z,1.80
2022-08-04T07:02:59.414Z,1.88
2022-08-04T07:05:47.258Z,1.58
2022-08-04T07:08:32.638Z,2.22
2022-08-04T07:11:19.713Z,2.03
2022-08-04T07:14:05.492Z,1.58
2022-08-04T07:16:51.880Z,1.90
2022-08-04T07:19:38.362Z,1.88
2022-08-04T07:22:25.920Z,2.20
2022-08-04T07:25:13.145Z,1.67
2022-08-04T07:27:58.560Z,1.63
2022-08-04T07:30:45.136Z,1.50
2022-08-04T07:33:30.375Z,1.42
2022-08-04T07:36:15.924Z,1.52
2022-08-04T07:39:01.012Z,1.42
2022-08-04T07:41:49.019Z,1.70
2022-08-04T07:44:35.063Z,2.10
2022-08-04T07:47:24.970Z,1.75
2022-08-04T07:50:12.457Z,1.42
2022-08-04T07:53:22.466Z,1.65
2022-08-04T07:56:03.770Z,1.58
2022-08-04T07:58:50.348Z,1.58
2022-08-04T08:01:37.162Z,1.67
2022-08-04T08:04:22.866Z,1.52
2022-08-04T08:07:08.399Z,1.15
2022-08-04T08:09:53.614Z,1.33
2022-08-04T08:12:51.404Z,1.38
2022-08-04T08:15:38.022Z,1.65
2022-08-04T08:18:23.023Z,1.52
2022-08-04T08:21:08.411Z,1.70
2022-08-04T08:23:54.178Z,1.40
2022-08-04T08:26:41.358Z,1.45
2022-08-04T08:29:26.936Z,1.50
2022-08-04T08:32:14.091Z,1.08
2022-08-04T08:34:59.247Z,1.33
2022-08-04T08:37:50.746Z,1.60
2022-08-04T08:40:59.444Z,1.48
2022-08-04T08:44:05.122Z,1.55
2022-08-04T08:47:20.028Z,1.38
2022-08-04T08:50:41.621Z,1.40
2022-08-04T08:53:45.185Z,1.50
2022-08-04T08:56:46.022Z,1.23
2022-08-04T08:59:57.446Z,1.33
2022-08-04T09:03:19.801Z,2.13
2022-08-04T09:06:17.232Z,1.27
2022-08-04T09:09:30.589Z,1.27
2022-08-04T09:12:27.912Z,1.50
2022-08-04T09:15:18.620Z,1.50
2022-08-04T09:18:11.793Z,0.93
2022-08-04T09:21:17.312Z,0.95
2022-08-04T09:24:35.816Z,1.40
2022-08-04T09:27:44.221Z,1.23
2022-08-04T09:30:52.373Z,1.48
2022-08-04T09:33:44.918Z,1.45
2022-08-04T09:36:53.600Z,1.45
2022-08-04T09:39:56.570Z,1.02
2022-08-04T09:42:55.418Z,1.10
2022-08-04T09:45:54.559Z,1.08
2022-08-04T09:48:44.486Z,0.85
2022-08-04T09:51:56.830Z,1.00
2022-08-04T09:54:59.228Z,1.00
2022-08-04T09:58:02.186Z,1.33
2022-08-04T10:00:53.735Z,2.45
2022-08-04T10:03:54.985Z,1.40
2022-08-04T10:06:43.196Z,0.90
2022-08-04T10:10:03.726Z,0.90
2022-08-04T10:13:06.874Z,0.88
2022-08-04T10:16:16.167Z,0.90
2022-08-04T10:19:14.810Z,0.77
2022-08-04T10:22:28.025Z,0.90
2022-08-04T10:25:37.531Z,0.90
2022-08-04T10:29:03.566Z,1.20
2022-08-04T10:31:57.307Z,1.10
2022-08-04T10:35:07.485Z,1.10
2022-08-04T10:38:02.513Z,1.00
2022-08-04T10:41:00.274Z,1.10
2022-08-04T10:43:59.869Z,1.13
2022-08-04T10:46:52.728Z,0.90
2022-08-04T10:49:48.745Z,0.82
2022-08-04T10:52:48.233Z,1.10
2022-08-04T10:56:06.552Z,1.35
2022-08-04T10:58:52.945Z,1.35
2022-08-04T11:02:02.010Z,0.95
2022-08-04T11:04:58.689Z,1.13
2022-08-04T11:07:47.226Z,1.30
2022-08-04T11:10:47.021Z,1.13
2022-08-04T11:13:47.089Z,1.08
2022-08-04T11:16:46.673Z,1.10
2022-08-04T11:19:42.720Z,1.23
2022-08-04T11:22:38.703Z,1.08
2022-08-04T11:25:29.626Z,0.60
2022-08-04T11:28:25.320Z,1.13
2022-08-04T11:31:13.185Z,1.10
2022-08-04T11:34:09.845Z,0.80
2022-08-04T11:37:02.942Z,1.00
2022-08-04T11:40:13.510Z,1.10
2022-08-04T11:43:04.771Z,1.30
2022-08-04T11:46:07.257Z,1.05
2022-08-04T11:49:02.425Z,0.95
2022-08-04T11:51:51.473Z,1.05
2022-08-04T11:54:38.438Z,1.42
2022-08-04T11:57:35.173Z,1.20
2022-08-04T12:00:25.126Z,1.00
2022-08-04T12:03:28.749Z,0.80
2022-08-04T12:06:25.352Z,0.98
2022-08-04T12:09:32.742Z,1.30
2022-08-04T12:12:37.972Z,1.08
2022-08-04T12:15:31.071Z,1.05
2022-08-04T12:18:22.354Z,1.35
2022-08-04T12:21:18.913Z,1.00
2022-08-04T12:24:17.562Z,0.90
2022-08-04T12:27:14.152Z,0.95
2022-08-04T12:30:59.687Z,0.98
2022-08-04T12:33:20.485Z,0.88
2022-08-04T12:36:20.975Z,1.20
2022-08-04T12:39:17.802Z,1.42
2022-08-04T12:42:21.446Z,1.27
2022-08-04T12:45:11.343Z,0.80
2022-08-04T12:48:01.073Z,1.10
2022-08-04T12:50:50.015Z,1.20
2022-08-04T12:56:38.842Z,1.23
2022-08-04T12:59:24.163Z,0.93
2022-08-04T13:02:16.899Z,1.42
2022-08-04T13:05:05.756Z,1.05
2022-08-04T13:07:53.734Z,1.10
2022-08-04T13:10:45.610Z,1.02
2022-08-04T13:16:18.230Z,0.85
2022-08-04T13:19:09.413Z,1.00
2022-08-04T13:22:03.023Z,0.80
2022-08-04T13:24:56.624Z,1.15
2022-08-04T13:27:57.791Z,0.90
2022-08-04T13:30:46.173Z,0.90
2022-08-04T13:33:37.722Z,0.90
2022-08-04T13:36:28.838Z,1.30
2022-08-04T13:39:18.786Z,0.98
2022-08-04T13:42:09.292Z,0.88
2022-08-04T13:44:59.729Z,1.00
2022-08-04T13:47:48.629Z,0.98
2022-08-04T13:50:35.210Z,1.00
2022-08-04T13:53:22.054Z,1.23
2022-08-04T13:56:10.483Z,1.05
2022-08-04T13:58:57.375Z,0.70
2022-08-04T14:01:58.736Z,1.10
2022-08-04T14:04:51.840Z,1.00
2022-08-04T14:07:50.407Z,1.05
2022-08-04T14:10:36.906Z,1.27
2022-08-04T14:13:41.444Z,0.93
2022-08-04T14:16:27.493Z,0.98
2022-08-04T14:19:12.768Z,1.05
2022-08-04T14:21:58.004Z,0.93
2022-08-04T14:24:43.429Z,0.80
2022-08-04T14:27:29.004Z,0.90
2022-08-04T14:30:29.308Z,0.90
2022-08-04T14:34:03.684Z,0.90
2022-08-04T14:36:22.423Z,0.73
2022-08-04T14:39:12.500Z,0.65
2022-08-04T14:41:57.738Z,0.90
2022-08-04T14:44:56.478Z,1.00
2022-08-04T14:47:52.943Z,0.80
2022-08-04T14:50:46.551Z,1.00
2022-08-04T14:53:31.866Z,0.70
2022-08-04T14:56:37.458Z,0.73
2022-08-04T14:59:22.409Z,0.77
2022-08-04T15:02:08.490Z,0.70
2022-08-04T15:04:53.593Z,0.80
2022-08-04T15:07:40.284Z,0.80
2022-08-04T15:10:25.957Z,1.17
2022-08-04T15:13:13.274Z,0.65
2022-08-04T15:16:06.459Z,0.70
2022-08-04T15:18:54.855Z,0.68
2022-08-04T15:24:27.259Z,0.90
2022-08-04T15:27:14.174Z,1.00
2022-08-04T15:30:02.970Z,1.10
2022-08-04T15:32:56.677Z,0.90
2022-08-04T15:35:46.113Z,1.00
2022-08-04T15:38:42.511Z,0.93
2022-08-04T15:41:46.313Z,0.90
2022-08-04T15:45:03.313Z,0.80
2022-08-04T15:48:02.707Z,1.00
2022-08-04T15:50:59.979Z,0.85
2022-08-04T15:54:24.399Z,0.80
2022-08-04T15:57:14.348Z,1.05
2022-08-04T16:00:01.270Z,1.00
2022-08-04T16:02:46.966Z,0.90
2022-08-04T16:05:35.546Z,0.85
2022-08-04T16:08:20.792Z,1.00
2022-08-04T16:11:05.961Z,1.00
2022-08-04T16:14:02.612Z,1.10
2022-08-04T16:16:50.036Z,1.20
2022-08-04T16:19:55.079Z,1.17
2022-08-04T16:22:41.355Z,0.85
2022-08-04T16:25:51.914Z,1.10
2022-08-04T16:28:38.478Z,1.15
2022-08-04T16:31:23.499Z,1.20
2022-08-04T16:34:48.205Z,1.30
2022-08-04T16:37:16.775Z,1.23
2022-08-04T16:40:23.538Z,1.10
2022-08-04T16:43:19.006Z,1.30
2022-08-04T16:46:06.959Z,1.20
2022-08-04T16:49:07.289Z,1.10
2022-08-04T16:51:53.011Z,1.13
2022-08-04T16:54:38.358Z,0.90
2022-08-04T16:57:23.766Z,1.00
2022-08-04T17:00:09.802Z,0.90
2022-08-04T17:02:54.721Z,1.55
2022-08-04T17:05:40.713Z,0.90
2022-08-04T17:08:30.209Z,1.10
2022-08-04T17:11:16.871Z,1.13
2022-08-04T17:14:05.880Z,1.00
2022-08-04T17:16:53.119Z,1.27
2022-08-04T17:19:38.513Z,1.50
2022-08-04T17:22:23.880Z,1.33
2022-08-04T17:25:09.737Z,2.20
2022-08-04T17:28:08.930Z,3.60
2022-08-04T17:31:08.278Z,3.15
2022-08-04T17:33:56.535Z,3.05
2022-08-04T17:36:42.173Z,2.77
2022-08-04T17:39:38.293Z,1.77
2022-08-04T17:42:32.730Z,1.48
2022-08-04T17:48:24.195Z,1.40
2022-08-04T17:51:16.755Z,1.45
2022-08-04T17:54:04.623Z,0.88
2022-08-04T17:56:53.438Z,1.05
2022-08-04T18:02:53.512Z,0.95
2022-08-04T18:06:03.548Z,1.00
2022-08-04T18:08:45.870Z,1.00
2022-08-04T18:11:41.501Z,1.05
2022-08-04T18:14:36.476Z,0.85
2022-08-04T18:18:20.482Z,1.23
2022-08-04T18:20:37.942Z,1.17
2022-08-04T18:23:31.429Z,1.10
2022-08-04T18:26:18.225Z,0.95
2022-08-04T18:29:09.509Z,0.90
2022-08-04T18:32:15.221Z,0.80
2022-08-04T18:35:07.578Z,1.25
2022-08-04T18:40:54.700Z,0.93
2022-08-04T18:43:40.885Z,0.90
2022-08-04T18:50:49.742Z,0.80
2022-08-04T18:52:45.423Z,1.13
2022-08-04T18:55:55.457Z,1.00
2022-08-04T18:58:36.697Z,1.52
2022-08-04T19:01:22.122Z,0.80
2022-08-04T19:04:34.248Z,0.80
2022-08-04T19:07:29.471Z,0.85
2022-08-04T19:10:27.264Z,1.02
2022-08-04T19:13:24.878Z,0.93
2022-08-04T19:16:16.593Z,0.82
2022-08-04T19:19:06.488Z,1.02
2022-08-04T19:22:01.263Z,0.85
2022-08-04T19:24:48.951Z,0.70
2022-08-04T19:27:38.718Z,0.80
2022-08-04T19:30:25.320Z,0.80
2022-08-04T19:33:11.233Z,0.88
2022-08-04T19:35:56.274Z,0.70
2022-08-04T19:38:43.429Z,1.20
2022-08-04T19:41:33.717Z,0.95
2022-08-04T19:44:43.861Z,0.70
2022-08-04T19:48:13.078Z,0.50
2022-08-04T19:50:35.183Z,0.68
2022-08-04T19:53:37.018Z,2.42
2022-08-04T19:56:25.793Z,0.63
2022-08-04T19:59:11.303Z,0.70
2022-08-04T20:01:56.593Z,0.80
2022-08-04T20:04:41.867Z,0.70
2022-08-04T20:07:28.247Z,1.20
2022-08-04T20:10:14.867Z,1.33
2022-08-04T20:13:00.036Z,0.95
2022-08-04T20:15:57.678Z,0.80
2022-08-04T20:21:54.849Z,1.02
2022-08-04T20:24:48.025Z,0.60
2022-08-04T20:27:59.434Z,1.00
2022-08-04T20:30:47.565Z,0.98
2022-08-04T20:33:33.974Z,0.80
2022-08-04T20:36:19.320Z,0.90
2022-08-04T20:39:04.623Z,0.98
2022-08-04T20:41:54.846Z,0.80
2022-08-04T20:44:46.233Z,0.82
2022-08-04T20:47:35.212Z,0.65
2022-08-04T20:50:29.806Z,0.60
2022-08-04T20:53:16.595Z,0.50
2022-08-04T20:56:02.552Z,0.90
2022-08-04T20:58:47.777Z,0.63
2022-08-04T21:01:33.177Z,0.60
2022-08-04T21:04:45.571Z,0.57
2022-08-04T21:07:36.390Z,0.70
2022-08-04T21:10:27.447Z,0.90
2022-08-04T21:13:12.472Z,0.50
2022-08-04T21:15:59.290Z,0.65
2022-08-04T21:18:45.145Z,0.70
2022-08-04T21:21:35.706Z,0.85
2022-08-04T21:24:25.927Z,0.80
2022-08-04T21:27:12.211Z,0.80
2022-08-04T21:29:57.807Z,0.70
2022-08-04T21:32:45.198Z,0.75
2022-08-04T21:35:38.411Z,0.80
2022-08-04T21:38:27.850Z,0.80
2022-08-04T21:41:13.758Z,0.85
2022-08-04T21:44:09.832Z,0.80
2022-08-04T21:46:55.646Z,0.75
2022-08-04T21:49:55.970Z,0.70
2022-08-04T21:52:42.558Z,0.70
2022-08-04T21:56:05.765Z,0.82
2022-08-04T21:58:33.016Z,0.55
2022-08-04T22:01:18.439Z,0.88
2022-08-04T22:04:23.319Z,0.77
2022-08-04T22:07:08.939Z,0.50
2022-08-04T22:10:00.045Z,0.85
2022-08-04T22:12:45.521Z,0.70
2022-08-04T22:16:03.871Z,0.60
2022-08-04T22:18:42.775Z,0.68
2022-08-04T22:21:30.634Z,0.80
2022-08-04T22:24:15.713Z,1.10
2022-08-04T22:27:00.965Z,0.60
2022-08-04T22:29:46.234Z,0.80
2022-08-04T22:32:32.431Z,0.50
2022-08-04T22:35:35.830Z,0.50
2022-08-04T22:38:42.056Z,0.90
2022-08-04T22:41:34.241Z,0.60
2022-08-04T22:44:34.540Z,0.52
2022-08-04T22:47:23.481Z,0.60
2022-08-04T22:50:27.503Z,1.23
2022-08-04T22:53:18.092Z,0.70
2022-08-04T22:56:09.782Z,0.77
2022-08-04T22:58:57.789Z,0.63
2022-08-04T23:01:58.119Z,0.60
2022-08-04T23:04:49.003Z,0.55
2022-08-04T23:07:38.053Z,0.60
2022-08-04T23:10:34.901Z,0.68
2022-08-04T23:13:20.612Z,0.60
2022-08-04T23:16:10.079Z,0.70
2022-08-04T23:18:55.564Z,0.70
2022-08-04T23:21:47.889Z,0.60
2022-08-04T23:24:47.796Z,0.70
2022-08-04T23:27:40.326Z,0.75
2022-08-04T23:30:29.786Z,0.80
2022-08-04T23:33:15.512Z,0.80
2022-08-04T23:36:00.832Z,0.60
2022-08-04T23:38:46.576Z,0.85
2022-08-04T23:41:53.659Z,0.80
2022-08-04T23:44:39.020Z,0.80
2022-08-04T23:48:15.398Z,0.60
2022-08-04T23:50:31.461Z,0.65
2022-08-04T23:53:18.792Z,1.17
2022-08-04T23:56:09.570Z,0.80
2022-08-04T23:59:04.929Z,0.60
